sensor_id;sensor_type;location;lat;lon;timestamp;pressure;altitude;pressure_sealevel;temperature;humidity
38786;BME280;24535;45.508;12.252;2023-03-25T00:02:18;101086.59;;;16.01;63.08
38786;BME280;24535;45.508;12.252;2023-03-25T00:04:47;101091.75;;;16.03;63.48
38786;BME280;24535;45.508;12.252;2023-03-25T00:07:15;101092.75;;;16.02;63.10
38786;BME280;24535;45.508;12.252;2023-03-25T00:09:42;101085.59;;;16.02;63.06
38786;BME280;24535;45.508;12.252;2023-03-25T00:12:08;101089.94;;;16.03;63.04
38786;BME280;24535;45.508;12.252;2023-03-25T00:14:34;101081.97;;;16.03;62.96
38786;BME280;24535;45.508;12.252;2023-03-25T00:16:59;101088.84;;;16.06;63.27
38786;BME280;24535;45.508;12.252;2023-03-25T00:19:28;101086.78;;;16.10;63.36
38786;BME280;24535;45.508;12.252;2023-03-25T00:21:54;101082.31;;;16.10;62.87
38786;BME280;24535;45.508;12.252;2023-03-25T00:24:19;101077.00;;;16.10;62.90
38786;BME280;24535;45.508;12.252;2023-03-25T00:26:46;101083.28;;;16.09;62.88
38786;BME280;24535;45.508;12.252;2023-03-25T00:29:14;101078.91;;;16.08;63.21
38786;BME280;24535;45.508;12.252;2023-03-25T00:31:41;101084.22;;;16.08;63.17
38786;BME280;24535;45.508;12.252;2023-03-25T00:34:07;101082.56;;;16.07;63.13
38786;BME280;24535;45.508;12.252;2023-03-25T00:36:33;101086.91;;;16.08;63.63
38786;BME280;24535;45.508;12.252;2023-03-25T00:39:05;101080.63;;;16.09;63.59
38786;BME280;24535;45.508;12.252;2023-03-25T00:41:30;101090.13;;;16.12;63.28
38786;BME280;24535;45.508;12.252;2023-03-25T00:43:58;101084.81;;;16.12;63.29
38786;BME280;24535;45.508;12.252;2023-03-25T00:46:25;101084.97;;;16.10;62.66
38786;BME280;24535;45.508;12.252;2023-03-25T00:48:51;101088.84;;;16.06;62.69
38786;BME280;24535;45.508;12.252;2023-03-25T00:51:18;101079.31;;;16.03;62.61
38786;BME280;24535;45.508;12.252;2023-03-25T00:53:47;101079.59;;;16.00;62.43
38786;BME280;24535;45.508;12.252;2023-03-25T00:56:16;101077.88;;;15.99;62.68
38786;BME280;24535;45.508;12.252;2023-03-25T00:58:41;101071.97;;;15.96;62.43
38786;BME280;24535;45.508;12.252;2023-03-25T01:01:16;101076.59;;;15.94;63.31
38786;BME280;24535;45.508;12.252;2023-03-25T01:03:43;101067.91;;;15.92;62.88
38786;BME280;24535;45.508;12.252;2023-03-25T01:06:13;101054.91;;;15.89;63.09
38786;BME280;24535;45.508;12.252;2023-03-25T01:08:40;101055.97;;;15.86;62.94
38786;BME280;24535;45.508;12.252;2023-03-25T01:11:16;101064.78;;;15.87;63.70
38786;BME280;24535;45.508;12.252;2023-03-25T01:13:42;101058.63;;;15.86;62.63
38786;BME280;24535;45.508;12.252;2023-03-25T01:16:07;101060.59;;;15.84;62.82
38786;BME280;24535;45.508;12.252;2023-03-25T01:18:33;101053.84;;;15.80;62.27
38786;BME280;24535;45.508;12.252;2023-03-25T01:21:03;101053.28;;;15.76;62.80
38786;BME280;24535;45.508;12.252;2023-03-25T01:23:29;101053.38;;;15.75;63.14
38786;BME280;24535;45.508;12.252;2023-03-25T01:25:54;101041.47;;;15.69;62.92
38786;BME280;24535;45.508;12.252;2023-03-25T01:28:19;101039.91;;;15.67;62.95
38786;BME280;24535;45.508;12.252;2023-03-25T01:30:45;101037.44;;;15.64;63.42
38786;BME280;24535;45.508;12.252;2023-03-25T01:33:11;101044.72;;;15.62;63.34
38786;BME280;24535;45.508;12.252;2023-03-25T01:35:36;101034.34;;;15.58;63.39
38786;BME280;24535;45.508;12.252;2023-03-25T01:38:01;101028.34;;;15.56;63.34
38786;BME280;24535;45.508;12.252;2023-03-25T01:40:28;101031.94;;;15.55;63.29
38786;BME280;24535;45.508;12.252;2023-03-25T01:42:54;101019.31;;;15.48;63.39
38786;BME280;24535;45.508;12.252;2023-03-25T01:45:26;101032.59;;;15.48;63.32
38786;BME280;24535;45.508;12.252;2023-03-25T01:48:05;101014.25;;;15.45;63.92
38786;BME280;24535;45.508;12.252;2023-03-25T01:50:35;101009.06;;;15.43;63.47
38786;BME280;24535;45.508;12.252;2023-03-25T01:53:03;101010.03;;;15.42;63.21
38786;BME280;24535;45.508;12.252;2023-03-25T01:55:32;101004.88;;;15.41;63.72
38786;BME280;24535;45.508;12.252;2023-03-25T01:58:02;101000.66;;;15.38;63.79
38786;BME280;24535;45.508;12.252;2023-03-25T02:00:30;100998.13;;;15.37;63.66
38786;BME280;24535;45.508;12.252;2023-03-25T02:02:57;100995.84;;;15.32;63.85
38786;BME280;24535;45.508;12.252;2023-03-25T02:05:32;100991.63;;;15.29;63.89
38786;BME280;24535;45.508;12.252;2023-03-25T02:08:01;100988.28;;;15.27;63.74
38786;BME280;24535;45.508;12.252;2023-03-25T02:10:30;100974.28;;;15.25;63.83
38786;BME280;24535;45.508;12.252;2023-03-25T02:12:56;100981.41;;;15.25;63.31
38786;BME280;24535;45.508;12.252;2023-03-25T02:15:23;100979.84;;;15.22;63.81
38786;BME280;24535;45.508;12.252;2023-03-25T02:18:14;100985.03;;;15.24;64.28
38786;BME280;24535;45.508;12.252;2023-03-25T02:24:38;100985.97;;;15.23;63.93
38786;BME280;24535;45.508;12.252;2023-03-25T02:36:52;100977.72;;;15.05;64.11
38786;BME280;24535;45.508;12.252;2023-03-25T02:42:16;100972.34;;;14.95;63.99
38786;BME280;24535;45.508;12.252;2023-03-25T02:45:02;100975.84;;;14.96;64.36
38786;BME280;24535;45.508;12.252;2023-03-25T02:47:35;100976.78;;;14.95;63.61
38786;BME280;24535;45.508;12.252;2023-03-25T02:52:53;100981.25;;;14.94;63.37
38786;BME280;24535;45.508;12.252;2023-03-25T02:55:21;100978.00;;;14.91;63.67
38786;BME280;24535;45.508;12.252;2023-03-25T02:57:50;100974.66;;;14.89;63.54
38786;BME280;24535;45.508;12.252;2023-03-25T03:00:22;100973.06;;;14.86;63.61
38786;BME280;24535;45.508;12.252;2023-03-25T03:02:57;100977.69;;;14.84;63.70
38786;BME280;24535;45.508;12.252;2023-03-25T03:05:43;100975.50;;;14.78;63.32
38786;BME280;24535;45.508;12.252;2023-03-25T03:11:11;100979.03;;;14.67;63.70
38786;BME280;24535;45.508;12.252;2023-03-25T03:21:46;100971.22;;;14.54;64.40
38786;BME280;24535;45.508;12.252;2023-03-25T03:24:26;100964.47;;;14.50;63.98
38786;BME280;24535;45.508;12.252;2023-03-25T03:29:47;100978.31;;;14.43;63.79
38786;BME280;24535;45.508;12.252;2023-03-25T03:32:51;100972.50;;;14.38;64.25
38786;BME280;24535;45.508;12.252;2023-03-25T03:35:28;100976.97;;;14.37;64.20
38786;BME280;24535;45.508;12.252;2023-03-25T03:38:06;100973.72;;;14.33;64.48
38786;BME280;24535;45.508;12.252;2023-03-25T03:40:39;100973.09;;;14.30;64.80
38786;BME280;24535;45.508;12.252;2023-03-25T03:43:14;100978.31;;;14.31;64.54
38786;BME280;24535;45.508;12.252;2023-03-25T03:45:44;100974.81;;;14.31;64.14
38786;BME280;24535;45.508;12.252;2023-03-25T03:48:53;100980.81;;;14.33;64.96
38786;BME280;24535;45.508;12.252;2023-03-25T03:51:55;100982.63;;;14.32;65.38
38786;BME280;24535;45.508;12.252;2023-03-25T03:54:28;100984.69;;;14.29;64.22
38786;BME280;24535;45.508;12.252;2023-03-25T03:57:06;100987.34;;;14.29;64.82
38786;BME280;24535;45.508;12.252;2023-03-25T04:02:36;100989.38;;;14.25;63.93
38786;BME280;24535;45.508;12.252;2023-03-25T04:05:06;100996.63;;;14.23;64.80
38786;BME280;24535;45.508;12.252;2023-03-25T04:08:10;101005.41;;;14.24;64.77
38786;BME280;24535;45.508;12.252;2023-03-25T04:10:45;101010.09;;;14.20;64.81
38786;BME280;24535;45.508;12.252;2023-03-25T04:13:18;101009.38;;;14.18;63.68
38786;BME280;24535;45.508;12.252;2023-03-25T04:15:45;101018.41;;;14.16;64.23
38786;BME280;24535;45.508;12.252;2023-03-25T04:18:11;101016.59;;;14.16;64.78
38786;BME280;24535;45.508;12.252;2023-03-25T04:20:37;101023.47;;;14.19;64.47
38786;BME280;24535;45.508;12.252;2023-03-25T04:23:09;101022.88;;;14.15;63.62
38786;BME280;24535;45.508;12.252;2023-03-25T04:25:43;101019.59;;;14.12;64.29
38786;BME280;24535;45.508;12.252;2023-03-25T04:28:12;101021.50;;;14.09;63.94
38786;BME280;24535;45.508;12.252;2023-03-25T04:30:38;101021.78;;;14.06;64.32
38786;BME280;24535;45.508;12.252;2023-03-25T04:33:04;101025.63;;;14.02;63.77
38786;BME280;24535;45.508;12.252;2023-03-25T04:35:30;101028.50;;;13.99;64.07
38786;BME280;24535;45.508;12.252;2023-03-25T04:37:57;101020.78;;;13.96;63.24
38786;BME280;24535;45.508;12.252;2023-03-25T04:40:24;101019.44;;;13.91;63.32
38786;BME280;24535;45.508;12.252;2023-03-25T04:42:50;101020.53;;;13.88;64.08
38786;BME280;24535;45.508;12.252;2023-03-25T04:45:17;101026.16;;;13.83;64.32
38786;BME280;24535;45.508;12.252;2023-03-25T04:47:47;101030.84;;;13.80;63.61
38786;BME280;24535;45.508;12.252;2023-03-25T04:50:31;101027.50;;;13.78;64.38
38786;BME280;24535;45.508;12.252;2023-03-25T04:52:58;101033.84;;;13.75;64.27
38786;BME280;24535;45.508;12.252;2023-03-25T04:55:25;101025.06;;;13.75;64.08
38786;BME280;24535;45.508;12.252;2023-03-25T04:57:52;101018.19;;;13.72;64.74
38786;BME280;24535;45.508;12.252;2023-03-25T05:00:22;101019.28;;;13.70;64.41
38786;BME280;24535;45.508;12.252;2023-03-25T05:02:50;101014.00;;;13.70;64.97
38786;BME280;24535;45.508;12.252;2023-03-25T05:05:19;101014.69;;;13.72;64.61
38786;BME280;24535;45.508;12.252;2023-03-25T05:07:52;101015.53;;;13.72;64.25
38786;BME280;24535;45.508;12.252;2023-03-25T05:10:20;101016.38;;;13.73;65.18
38786;BME280;24535;45.508;12.252;2023-03-25T05:12:46;101024.44;;;13.71;64.60
38786;BME280;24535;45.508;12.252;2023-03-25T05:15:12;101017.13;;;13.75;64.79
38786;BME280;24535;45.508;12.252;2023-03-25T05:17:39;101020.47;;;13.77;65.25
38786;BME280;24535;45.508;12.252;2023-03-25T05:20:06;101028.44;;;13.77;64.69
38786;BME280;24535;45.508;12.252;2023-03-25T05:22:36;101023.13;;;13.77;64.57
38786;BME280;24535;45.508;12.252;2023-03-25T05:25:06;101027.38;;;13.79;65.28
38786;BME280;24535;45.508;12.252;2023-03-25T05:27:33;101028.22;;;13.80;65.14
38786;BME280;24535;45.508;12.252;2023-03-25T05:29:59;101037.13;;;13.79;64.67
38786;BME280;24535;45.508;12.252;2023-03-25T05:32:25;101034.47;;;13.79;64.49
38786;BME280;24535;45.508;12.252;2023-03-25T05:34:57;101033.28;;;13.83;64.84
38786;BME280;24535;45.508;12.252;2023-03-25T05:37:23;101034.13;;;13.83;64.70
38786;BME280;24535;45.508;12.252;2023-03-25T05:39:48;101039.19;;;13.87;64.96
38786;BME280;24535;45.508;12.252;2023-03-25T05:42:16;101027.63;;;13.88;65.07
38786;BME280;24535;45.508;12.252;2023-03-25T05:44:41;101029.22;;;13.90;64.60
38786;BME280;24535;45.508;12.252;2023-03-25T05:47:21;101030.66;;;13.94;65.07
38786;BME280;24535;45.508;12.252;2023-03-25T05:49:48;101031.38;;;13.96;65.03
38786;BME280;24535;45.508;12.252;2023-03-25T05:52:15;101033.44;;;14.04;64.97
38786;BME280;24535;45.508;12.252;2023-03-25T05:54:45;101036.56;;;14.09;65.73
38786;BME280;24535;45.508;12.252;2023-03-25T05:57:11;101036.72;;;14.19;66.34
38786;BME280;24535;45.508;12.252;2023-03-25T05:59:38;101037.44;;;14.32;65.74
38786;BME280;24535;45.508;12.252;2023-03-25T06:02:13;101032.03;;;14.45;66.07
38786;BME280;24535;45.508;12.252;2023-03-25T06:04:38;101036.53;;;14.55;65.66
38786;BME280;24535;45.508;12.252;2023-03-25T06:07:14;101040.03;;;14.67;65.45
38786;BME280;24535;45.508;12.252;2023-03-25T06:09:45;101032.03;;;14.78;65.19
38786;BME280;24535;45.508;12.252;2023-03-25T06:12:16;101036.50;;;14.89;65.24
38786;BME280;24535;45.508;12.252;2023-03-25T06:14:42;101031.88;;;15.02;65.58
38786;BME280;24535;45.508;12.252;2023-03-25T06:17:13;101038.13;;;15.13;65.36
38786;BME280;24535;45.508;12.252;2023-03-25T06:19:39;101042.31;;;15.26;65.06
38786;BME280;24535;45.508;12.252;2023-03-25T06:22:06;101040.72;;;15.35;64.51
38786;BME280;24535;45.508;12.252;2023-03-25T06:24:39;101042.72;;;15.43;63.88
38786;BME280;24535;45.508;12.252;2023-03-25T06:27:14;101040.69;;;15.46;64.03
38786;BME280;24535;45.508;12.252;2023-03-25T06:29:40;101038.47;;;15.51;63.74
38786;BME280;24535;45.508;12.252;2023-03-25T06:32:15;101033.06;;;15.53;63.57
38786;BME280;24535;45.508;12.252;2023-03-25T06:34:40;101039.41;;;15.62;63.60
38786;BME280;24535;45.508;12.252;2023-03-25T06:37:07;101035.41;;;15.67;63.52
38786;BME280;24535;45.508;12.252;2023-03-25T06:39:33;101039.16;;;15.76;63.43
38786;BME280;24535;45.508;12.252;2023-03-25T06:42:03;101034.22;;;15.92;64.13
38786;BME280;24535;45.508;12.252;2023-03-25T06:44:29;101030.25;;;16.07;63.43
38786;BME280;24535;45.508;12.252;2023-03-25T06:46:55;101034.50;;;16.20;63.25
38786;BME280;24535;45.508;12.252;2023-03-25T06:49:20;101034.00;;;16.26;63.18
38786;BME280;24535;45.508;12.252;2023-03-25T06:51:46;101026.47;;;16.31;62.71
38786;BME280;24535;45.508;12.252;2023-03-25T06:54:12;101034.03;;;16.36;62.38
38786;BME280;24535;45.508;12.252;2023-03-25T06:56:37;101034.09;;;16.45;62.16
38786;BME280;24535;45.508;12.252;2023-03-25T06:59:03;101030.19;;;16.49;62.60
38786;BME280;24535;45.508;12.252;2023-03-25T07:01:29;101031.47;;;16.55;62.17
38786;BME280;24535;45.508;12.252;2023-03-25T07:03:55;101029.22;;;16.60;62.52
38786;BME280;24535;45.508;12.252;2023-03-25T07:06:21;101035.13;;;16.64;62.13
38786;BME280;24535;45.508;12.252;2023-03-25T07:08:58;101036.28;;;16.71;62.18
38786;BME280;24535;45.508;12.252;2023-03-25T07:11:28;101041.81;;;16.79;62.03
38786;BME280;24535;45.508;12.252;2023-03-25T07:13:55;101031.63;;;16.94;62.69
38786;BME280;24535;45.508;12.252;2023-03-25T07:16:21;101024.78;;;17.11;61.85
38786;BME280;24535;45.508;12.252;2023-03-25T07:18:48;101035.75;;;17.27;62.27
38786;BME280;24535;45.508;12.252;2023-03-25T07:21:15;101039.38;;;17.36;60.97
38786;BME280;24535;45.508;12.252;2023-03-25T07:23:41;101038.81;;;17.42;60.53
38786;BME280;24535;45.508;12.252;2023-03-25T07:26:07;101050.59;;;17.49;61.13
38786;BME280;24535;45.508;12.252;2023-03-25T07:28:32;101040.25;;;17.55;60.60
38786;BME280;24535;45.508;12.252;2023-03-25T07:30:58;101044.03;;;17.63;60.71
38786;BME280;24535;45.508;12.252;2023-03-25T07:33:23;101047.78;;;17.70;60.31
38786;BME280;24535;45.508;12.252;2023-03-25T07:35:49;101046.00;;;17.70;59.96
38786;BME280;24535;45.508;12.252;2023-03-25T07:38:15;101047.44;;;17.74;60.33
38786;BME280;24535;45.508;12.252;2023-03-25T07:40:40;101038.69;;;17.82;60.57
38786;BME280;24535;45.508;12.252;2023-03-25T07:43:06;101047.53;;;17.92;59.53
38786;BME280;24535;45.508;12.252;2023-03-25T07:45:31;101027.00;;;18.02;59.86
38786;BME280;24535;45.508;12.252;2023-03-25T07:48:02;101033.56;;;18.18;59.62
38786;BME280;24535;45.508;12.252;2023-03-25T07:50:28;101026.97;;;18.32;59.56
38786;BME280;24535;45.508;12.252;2023-03-25T07:52:56;101037.28;;;18.44;59.51
38786;BME280;24535;45.508;12.252;2023-03-25T07:55:21;101037.78;;;18.58;59.06
38786;BME280;24535;45.508;12.252;2023-03-25T07:57:47;101035.22;;;18.66;58.45
38786;BME280;24535;45.508;12.252;2023-03-25T08:00:12;101044.91;;;18.76;58.46
38786;BME280;24535;45.508;12.252;2023-03-25T08:02:39;101042.56;;;18.91;57.99
38786;BME280;24535;45.508;12.252;2023-03-25T08:05:06;101045.31;;;18.99;57.78
38786;BME280;24535;45.508;12.252;2023-03-25T08:07:32;101040.25;;;19.06;57.22
38786;BME280;24535;45.508;12.252;2023-03-25T08:09:57;101043.44;;;19.10;57.16
38786;BME280;24535;45.508;12.252;2023-03-25T08:12:23;101044.66;;;19.15;57.19
38786;BME280;24535;45.508;12.252;2023-03-25T08:14:48;101046.59;;;19.23;57.27
38786;BME280;24535;45.508;12.252;2023-03-25T08:17:14;101043.31;;;19.29;57.28
38786;BME280;24535;45.508;12.252;2023-03-25T08:19:40;101036.34;;;19.36;57.92
38786;BME280;24535;45.508;12.252;2023-03-25T08:22:05;101045.16;;;19.46;58.47
38786;BME280;24535;45.508;12.252;2023-03-25T08:24:31;101043.75;;;19.60;58.68
38786;BME280;24535;45.508;12.252;2023-03-25T08:26:57;101042.78;;;19.79;58.96
38786;BME280;24535;45.508;12.252;2023-03-25T08:29:25;101040.94;;;19.97;58.55
38786;BME280;24535;45.508;12.252;2023-03-25T08:31:51;101047.59;;;20.19;58.29
38786;BME280;24535;45.508;12.252;2023-03-25T08:34:18;101053.25;;;20.42;58.37
38786;BME280;24535;45.508;12.252;2023-03-25T08:36:44;101056.41;;;20.64;58.21
38786;BME280;24535;45.508;12.252;2023-03-25T08:39:10;101064.22;;;20.91;57.92
38786;BME280;24535;45.508;12.252;2023-03-25T08:41:37;101075.00;;;21.16;57.69
38786;BME280;24535;45.508;12.252;2023-03-25T08:44:06;101072.25;;;21.42;56.01
38786;BME280;24535;45.508;12.252;2023-03-25T08:46:32;101080.50;;;21.65;55.54
38786;BME280;24535;45.508;12.252;2023-03-25T08:48:58;101081.50;;;21.88;54.81
38786;BME280;24535;45.508;12.252;2023-03-25T08:51:23;101080.16;;;22.09;53.82
38786;BME280;24535;45.508;12.252;2023-03-25T08:53:49;101071.28;;;22.25;53.38
38786;BME280;24535;45.508;12.252;2023-03-25T08:56:18;101066.38;;;22.36;53.46
38786;BME280;24535;45.508;12.252;2023-03-25T08:58:44;101066.34;;;22.53;52.42
38786;BME280;24535;45.508;12.252;2023-03-25T09:01:09;101061.59;;;22.63;52.11
38786;BME280;24535;45.508;12.252;2023-03-25T09:03:36;101063.91;;;22.74;51.70
38786;BME280;24535;45.508;12.252;2023-03-25T09:06:06;101064.69;;;22.83;50.32
38786;BME280;24535;45.508;12.252;2023-03-25T09:08:32;101054.78;;;22.83;47.44
38786;BME280;24535;45.508;12.252;2023-03-25T09:10:58;101074.75;;;22.89;51.24
38786;BME280;24535;45.508;12.252;2023-03-25T09:13:23;101066.56;;;22.90;50.69
38786;BME280;24535;45.508;12.252;2023-03-25T09:15:49;101072.41;;;22.94;50.33
38786;BME280;24535;45.508;12.252;2023-03-25T09:18:15;101075.25;;;22.92;49.87
38786;BME280;24535;45.508;12.252;2023-03-25T09:20:40;101079.13;;;22.90;49.94
38786;BME280;24535;45.508;12.252;2023-03-25T09:23:06;101075.25;;;22.84;50.01
38786;BME280;24535;45.508;12.252;2023-03-25T09:25:34;101084.19;;;22.77;49.52
38786;BME280;24535;45.508;12.252;2023-03-25T09:27:59;101081.03;;;22.73;50.23
38786;BME280;24535;45.508;12.252;2023-03-25T09:30:25;101078.34;;;22.73;49.75
38786;BME280;24535;45.508;12.252;2023-03-25T09:32:51;101062.06;;;22.75;49.77
38786;BME280;24535;45.508;12.252;2023-03-25T09:35:17;101066.06;;;22.79;50.01
38786;BME280;24535;45.508;12.252;2023-03-25T09:37:42;101068.22;;;22.83;49.50
38786;BME280;24535;45.508;12.252;2023-03-25T09:40:12;101077.78;;;22.86;48.80
38786;BME280;24535;45.508;12.252;2023-03-25T09:42:59;101070.56;;;22.86;47.92
38786;BME280;24535;45.508;12.252;2023-03-25T09:45:30;101071.94;;;22.82;48.90
38786;BME280;24535;45.508;12.252;2023-03-25T09:50:47;101061.94;;;22.60;48.74
38786;BME280;24535;45.508;12.252;2023-03-25T09:53:28;101065.31;;;22.54;48.30
38786;BME280;24535;45.508;12.252;2023-03-25T09:55:55;101065.03;;;22.40;49.17
38786;BME280;24535;45.508;12.252;2023-03-25T10:15:20;101050.47;;;21.86;48.16
38786;BME280;24535;45.508;12.252;2023-03-25T10:20:44;101042.44;;;21.61;48.99
38786;BME280;24535;45.508;12.252;2023-03-25T10:23:28;101034.56;;;21.52;48.61
38786;BME280;24535;45.508;12.252;2023-03-25T10:26:04;101033.69;;;21.43;48.87
38786;BME280;24535;45.508;12.252;2023-03-25T10:28:37;101030.19;;;21.34;49.15
38786;BME280;24535;45.508;12.252;2023-03-25T10:31:14;101028.97;;;21.29;49.29
38786;BME280;24535;45.508;12.252;2023-03-25T10:33:47;101031.47;;;21.22;49.38
38786;BME280;24535;45.508;12.252;2023-03-25T10:36:16;101033.47;;;21.12;49.32
38786;BME280;24535;45.508;12.252;2023-03-25T10:38:45;101032.44;;;21.05;49.78
38786;BME280;24535;45.508;12.252;2023-03-25T10:41:33;101024.69;;;20.93;49.65
38786;BME280;24535;45.508;12.252;2023-03-25T10:44:09;101022.66;;;20.79;49.99
38786;BME280;24535;45.508;12.252;2023-03-25T10:49:15;101020.25;;;20.60;50.20
38786;BME280;24535;45.508;12.252;2023-03-25T10:51:42;101014.47;;;20.46;50.54
38786;BME280;24535;45.508;12.252;2023-03-25T10:54:13;101016.94;;;20.40;50.60
38786;BME280;24535;45.508;12.252;2023-03-25T10:56:47;101015.06;;;20.32;51.24
38786;BME280;24535;45.508;12.252;2023-03-25T10:59:37;101019.34;;;20.25;51.46
38786;BME280;24535;45.508;12.252;2023-03-25T11:02:23;101010.13;;;20.19;51.42
38786;BME280;24535;45.508;12.252;2023-03-25T11:04:57;101014.97;;;20.16;51.63
38786;BME280;24535;45.508;12.252;2023-03-25T11:07:40;101004.56;;;20.13;51.86
38786;BME280;24535;45.508;12.252;2023-03-25T11:12:39;101002.53;;;20.07;52.04
38786;BME280;24535;45.508;12.252;2023-03-25T11:15:29;101003.84;;;20.03;52.22
38786;BME280;24535;45.508;12.252;2023-03-25T11:20:52;101005.78;;;19.92;52.70
38786;BME280;24535;45.508;12.252;2023-03-25T11:23:36;101000.06;;;19.87;52.93
38786;BME280;24535;45.508;12.252;2023-03-25T11:26:19;100998.69;;;19.83;53.08
38786;BME280;24535;45.508;12.252;2023-03-25T11:28:51;100999.84;;;19.81;53.00
38786;BME280;24535;45.508;12.252;2023-03-25T11:31:20;100995.66;;;19.78;53.00
38786;BME280;24535;45.508;12.252;2023-03-25T11:34:02;100994.00;;;19.77;53.63
38786;BME280;24535;45.508;12.252;2023-03-25T11:36:30;100995.31;;;19.73;53.75
38786;BME280;24535;45.508;12.252;2023-03-25T11:39:02;100984.75;;;19.71;53.95
38786;BME280;24535;45.508;12.252;2023-03-25T11:41:34;100993.78;;;19.70;53.84
38786;BME280;24535;45.508;12.252;2023-03-25T11:44:03;100988.72;;;19.67;54.12
38786;BME280;24535;45.508;12.252;2023-03-25T11:46:29;100980.56;;;19.69;54.03
38786;BME280;24535;45.508;12.252;2023-03-25T11:48:55;100987.72;;;19.68;53.83
38786;BME280;24535;45.508;12.252;2023-03-25T11:51:24;100977.03;;;19.68;54.33
38786;BME280;24535;45.508;12.252;2023-03-25T11:54:11;100960.03;;;19.69;54.93
38786;BME280;24535;45.508;12.252;2023-03-25T11:56:40;100963.66;;;19.68;54.62
38786;BME280;24535;45.508;12.252;2023-03-25T11:59:16;100958.31;;;19.68;54.44
38786;BME280;24535;45.508;12.252;2023-03-25T12:01:47;100961.88;;;19.69;54.77
38786;BME280;24535;45.508;12.252;2023-03-25T12:04:17;100960.16;;;19.68;53.92
38786;BME280;24535;45.508;12.252;2023-03-25T12:07:28;100966.69;;;19.65;54.84
38786;BME280;24535;45.508;12.252;2023-03-25T12:09:30;100965.31;;;19.61;54.90
38786;BME280;24535;45.508;12.252;2023-03-25T12:12:15;100959.97;;;19.61;55.11
38786;BME280;24535;45.508;12.252;2023-03-25T12:15:21;100955.72;;;19.59;54.91
38786;BME280;24535;45.508;12.252;2023-03-25T12:29:30;100914.63;;;19.78;54.76
38786;BME280;24535;45.508;12.252;2023-03-25T12:32:04;100912.63;;;19.80;54.68
38786;BME280;24535;45.508;12.252;2023-03-25T12:44:01;100914.84;;;20.18;53.12
38786;BME280;24535;45.508;12.252;2023-03-25T13:09:11;100918.50;;;20.52;52.78
38786;BME280;24535;45.508;12.252;2023-03-25T13:11:47;100905.63;;;20.55;52.95
38786;BME280;24535;45.508;12.252;2023-03-25T13:14:31;100918.69;;;20.58;53.16
38786;BME280;24535;45.508;12.252;2023-03-25T13:17:02;100917.84;;;20.66;53.00
38786;BME280;24535;45.508;12.252;2023-03-25T13:19:31;100914.19;;;20.67;52.98
38786;BME280;24535;45.508;12.252;2023-03-25T13:22:16;100908.97;;;20.65;52.57
38786;BME280;24535;45.508;12.252;2023-03-25T13:24:50;100910.81;;;20.65;52.78
38786;BME280;24535;45.508;12.252;2023-03-25T13:27:17;100899.09;;;20.66;53.19
38786;BME280;24535;45.508;12.252;2023-03-25T13:29:48;100909.81;;;20.66;53.22
38786;BME280;24535;45.508;12.252;2023-03-25T13:32:22;100908.97;;;20.65;53.34
38786;BME280;24535;45.508;12.252;2023-03-25T13:38:04;100917.34;;;20.54;53.46
38786;BME280;24535;45.508;12.252;2023-03-25T13:40:45;100901.03;;;20.47;53.75
38786;BME280;24535;45.508;12.252;2023-03-25T13:43:23;100906.91;;;20.43;53.99
38786;BME280;24535;45.508;12.252;2023-03-25T13:46:12;100896.16;;;20.35;53.95
38786;BME280;24535;45.508;12.252;2023-03-25T13:52:05;100888.25;;;20.25;54.53
38786;BME280;24535;45.508;12.252;2023-03-25T14:10:49;100895.25;;;20.10;55.33
38786;BME280;24535;45.508;12.252;2023-03-25T14:13:27;100895.69;;;20.05;55.72
38786;BME280;24535;45.508;12.252;2023-03-25T14:18:26;100915.91;;;19.99;54.99
38786;BME280;24535;45.508;12.252;2023-03-25T14:23:46;100948.78;;;19.92;55.25
38786;BME280;24535;45.508;12.252;2023-03-25T14:26:16;100930.25;;;19.90;55.84
38786;BME280;24535;45.508;12.252;2023-03-25T14:28:44;100921.22;;;19.91;56.16
38786;BME280;24535;45.508;12.252;2023-03-25T14:31:16;100916.19;;;19.88;56.02
38786;BME280;24535;45.508;12.252;2023-03-25T14:36:37;100914.09;;;19.74;56.05
38786;BME280;24535;45.508;12.252;2023-03-25T14:42:02;100908.53;;;19.67;56.73
38786;BME280;24535;45.508;12.252;2023-03-25T14:44:32;100890.81;;;19.66;57.19
38786;BME280;24535;45.508;12.252;2023-03-25T14:47:44;100884.34;;;19.69;57.00
38786;BME280;24535;45.508;12.252;2023-03-25T14:50:00;100879.34;;;19.74;57.09
38786;BME280;24535;45.508;12.252;2023-03-25T14:52:30;100885.75;;;19.81;56.66
38786;BME280;24535;45.508;12.252;2023-03-25T14:54:57;100877.56;;;19.83;55.73
38786;BME280;24535;45.508;12.252;2023-03-25T14:57:26;100881.06;;;19.83;56.12
38786;BME280;24535;45.508;12.252;2023-03-25T15:00:00;100886.25;;;19.85;55.21
38786;BME280;24535;45.508;12.252;2023-03-25T15:02:29;100893.13;;;19.87;54.64
38786;BME280;24535;45.508;12.252;2023-03-25T15:07:41;100890.78;;;19.92;54.21
38786;BME280;24535;45.508;12.252;2023-03-25T15:10:28;100899.84;;;19.99;54.00
38786;BME280;24535;45.508;12.252;2023-03-25T15:13:17;100904.53;;;19.97;55.26
38786;BME280;24535;45.508;12.252;2023-03-25T15:21:10;100903.28;;;19.84;55.85
38786;BME280;24535;45.508;12.252;2023-03-25T15:26:33;100914.25;;;19.72;57.38
38786;BME280;24535;45.508;12.252;2023-03-25T15:32:00;100917.59;;;19.57;57.17
38786;BME280;24535;45.508;12.252;2023-03-25T15:37:29;100914.25;;;19.29;57.97
38786;BME280;24535;45.508;12.252;2023-03-25T15:40:43;100911.59;;;19.11;58.09